Anna Laura — ZCEB3 — position and weather

sailwx.info

Track history (hours):
 
Tides and Currents Weather Stations Pressure Air Temp Water Temp Dewpoint Dewpoint Depression Visibility Wind Speed Wind Dir Waves Ship Positions

Anna Laura

Last reported at 2018-Apr-08 18:36 UTC. Time now 2018-May-24 14:06 UTC.
Position N 26°06' W 080°07'.
Warning: this ship's position is 45 days out of date.

Length 30 m.

Type: Pleasure craft. MMSI: 310589000.

Date/timePositionNaut miles runAvg speedWind from/ knotsBaromVisibWave heightAir tempDewpointWater temp
2018-Apr-08 18:36N 26°06' W 080°07'1 5.6
2018-Apr-08 18:28N 26°06' W 080°07'2 1.0
2018-Apr-08 16:59N 26°07' W 080°06'0 0.0
2018-Apr-08 16:29N 26°07' W 080°06'0 0.0
2018-Apr-08 15:17N 26°07' W 080°06'0 0.0
2018-Apr-08 14:50N 26°07' W 080°06'0 0.0
2018-Apr-08 13:35N 26°07' W 080°06'0 0.0
2018-Apr-08 13:08N 26°07' W 080°06'0 0.0
2018-Apr-08 11:16N 26°07' W 080°06'2 5.9
2018-Apr-08 11:00N 26°06' W 080°06'  
2018-Apr-03 14:48N 26°07' W 080°07'2 5.0
2018-Apr-03 14:30N 26°06' W 080°07'816.4
2018-Apr-03 14:00N 25°57' W 080°06'4 7.2
2018-Apr-03 13:30N 25°54' W 080°05'4 8.2
2018-Apr-03 13:00N 25°50' W 080°06'4 8.8
2018-Apr-03 12:30N 25°46' W 080°08'2 3.1
2018-Apr-03 11:59N 25°47' W 080°09'0 0.0
2018-Apr-03 11:29N 25°47' W 080°09'0 0.0
2018-Apr-03 10:59N 25°47' W 080°09'0 0.0
2018-Apr-03 10:29N 25°47' W 080°09'0 0.0
2018-Apr-03 09:59N 25°47' W 080°09'0 0.0
2018-Apr-03 09:29N 25°47' W 080°09'0 0.0
2018-Apr-03 08:53N 25°47' W 080°09'0 0.0
2018-Apr-03 08:26N 25°47' W 080°09'0 0.0
2018-Apr-03 07:59N 25°47' W 080°09'0 0.0
2018-Apr-03 07:29N 25°47' W 080°09'0 0.0
2018-Apr-03 06:59N 25°47' W 080°09'0 0.0
2018-Apr-03 06:26N 25°47' W 080°09'0 0.0
2018-Apr-03 05:59N 25°47' W 080°09'0 0.0
2018-Apr-03 05:29N 25°47' W 080°09'0 0.0
2018-Apr-03 04:59N 25°47' W 080°09'0 0.0
2018-Apr-03 04:29N 25°47' W 080°09'0 0.0
2018-Apr-03 03:59N 25°47' W 080°09'0 0.0
2018-Apr-03 03:29N 25°47' W 080°09'0 0.0
2018-Apr-03 02:59N 25°47' W 080°09'0 0.0
2018-Apr-03 02:29N 25°47' W 080°09'0 0.0
2018-Apr-03 01:59N 25°47' W 080°09'0 0.0
2018-Apr-03 01:26N 25°47' W 080°09'0 0.0
2018-Apr-03 00:59N 25°47' W 080°09'0 0.0
2018-Apr-03 00:26N 25°47' W 080°09'0 0.0
2018-Apr-02 23:59N 25°47' W 080°09'0 0.0
2018-Apr-02 23:29N 25°47' W 080°09'0 0.0
2018-Apr-02 22:59N 25°47' W 080°09'0 0.0
2018-Apr-02 22:29N 25°47' W 080°09'0 0.0
2018-Apr-02 21:59N 25°47' W 080°09'0 0.0
2018-Apr-02 21:26N 25°47' W 080°09'0 0.0
2018-Apr-02 20:59N 25°47' W 080°09'0 0.0
2018-Apr-02 20:29N 25°47' W 080°09'0 0.0
2018-Apr-02 19:59N 25°47' W 080°09'0 0.0
2018-Apr-02 19:29N 25°47' W 080°09'0 0.0
2018-Apr-02 18:59N 25°47' W 080°09'0 0.0
2018-Apr-02 18:29N 25°47' W 080°09'3 5.8
2018-Apr-02 18:00N 25°45' W 080°07'18 0.4
2018-Mar-31 15:12N 26°01' W 079°56'1 6.3
2018-Mar-31 14:59N 26°02' W 079°57'3 6.2
2018-Mar-31 14:30N 26°03' W 079°60'4 7.5
2018-Mar-31 13:59N 26°05' W 080°04'3 7.0
2018-Mar-31 13:30N 26°06' W 080°07'  
Track history (hours):
 
Tides and Currents Weather Stations Pressure Air Temp Water Temp Dewpoint Dewpoint Depression Visibility Wind Speed Wind Dir Waves Ship Positions

Anna Laura

Last reported at 2018-Apr-08 18:36 UTC. Time now 2018-May-24 14:06 UTC.
Position N 26°06' W 080°07'.
Warning: this ship's position is 45 days out of date.

Length 30 m.

Type: Pleasure craft. MMSI: 310589000.

Date/timePositionNaut miles runAvg speedWind from/ knotsBaromVisibWave heightAir tempDewpointWater temp
2018-Apr-08 18:36N 26°06' W 080°07'1 5.6
2018-Apr-08 18:28N 26°06' W 080°07'2 1.0
2018-Apr-08 16:59N 26°07' W 080°06'0 0.0
2018-Apr-08 16:29N 26°07' W 080°06'0 0.0
2018-Apr-08 15:17N 26°07' W 080°06'0 0.0
2018-Apr-08 14:50N 26°07' W 080°06'0 0.0
2018-Apr-08 13:35N 26°07' W 080°06'0 0.0
2018-Apr-08 13:08N 26°07' W 080°06'0 0.0
2018-Apr-08 11:16N 26°07' W 080°06'2 5.9
2018-Apr-08 11:00N 26°06' W 080°06'  
2018-Apr-03 14:48N 26°07' W 080°07'2 5.0
2018-Apr-03 14:30N 26°06' W 080°07'816.4
2018-Apr-03 14:00N 25°57' W 080°06'4 7.2
2018-Apr-03 13:30N 25°54' W 080°05'4 8.2
2018-Apr-03 13:00N 25°50' W 080°06'4 8.8
2018-Apr-03 12:30N 25°46' W 080°08'2 3.1
2018-Apr-03 11:59N 25°47' W 080°09'0 0.0
2018-Apr-03 11:29N 25°47' W 080°09'0 0.0
2018-Apr-03 10:59N 25°47' W 080°09'0 0.0
2018-Apr-03 10:29N 25°47' W 080°09'0 0.0
2018-Apr-03 09:59N 25°47' W 080°09'0 0.0
2018-Apr-03 09:29N 25°47' W 080°09'0 0.0
2018-Apr-03 08:53N 25°47' W 080°09'0 0.0
2018-Apr-03 08:26N 25°47' W 080°09'0 0.0
2018-Apr-03 07:59N 25°47' W 080°09'0 0.0
2018-Apr-03 07:29N 25°47' W 080°09'0 0.0
2018-Apr-03 06:59N 25°47' W 080°09'0 0.0
2018-Apr-03 06:26N 25°47' W 080°09'0 0.0
2018-Apr-03 05:59N 25°47' W 080°09'0 0.0
2018-Apr-03 05:29N 25°47' W 080°09'0 0.0
2018-Apr-03 04:59N 25°47' W 080°09'0 0.0
2018-Apr-03 04:29N 25°47' W 080°09'0 0.0
2018-Apr-03 03:59N 25°47' W 080°09'0 0.0
2018-Apr-03 03:29N 25°47' W 080°09'0 0.0
2018-Apr-03 02:59N 25°47' W 080°09'0 0.0
2018-Apr-03 02:29N 25°47' W 080°09'0 0.0
2018-Apr-03 01:59N 25°47' W 080°09'0 0.0
2018-Apr-03 01:26N 25°47' W 080°09'0 0.0
2018-Apr-03 00:59N 25°47' W 080°09'0 0.0
2018-Apr-03 00:26N 25°47' W 080°09'0 0.0
2018-Apr-02 23:59N 25°47' W 080°09'0 0.0
2018-Apr-02 23:29N 25°47' W 080°09'0 0.0
2018-Apr-02 22:59N 25°47' W 080°09'0 0.0
2018-Apr-02 22:29N 25°47' W 080°09'0 0.0
2018-Apr-02 21:59N 25°47' W 080°09'0 0.0
2018-Apr-02 21:26N 25°47' W 080°09'0 0.0
2018-Apr-02 20:59N 25°47' W 080°09'0 0.0
2018-Apr-02 20:29N 25°47' W 080°09'0 0.0
2018-Apr-02 19:59N 25°47' W 080°09'0 0.0
2018-Apr-02 19:29N 25°47' W 080°09'0 0.0
2018-Apr-02 18:59N 25°47' W 080°09'0 0.0
2018-Apr-02 18:29N 25°47' W 080°09'3 5.8
2018-Apr-02 18:00N 25°45' W 080°07'18 0.4
2018-Mar-31 15:12N 26°01' W 079°56'1 6.3
2018-Mar-31 14:59N 26°02' W 079°57'3 6.2
2018-Mar-31 14:30N 26°03' W 079°60'4 7.5
2018-Mar-31 13:59N 26°05' W 080°04'3 7.0
2018-Mar-31 13:30N 26°06' W 080°07'  

Dump ship's entire track history